Time;durP1;ratioP1;P1;durP2;ratioP2;P2;SDS_P1;SDS_P2;PMS_P1;PMS_P2;Temp;Humidity;BMP_temperature;BMP_pressure;BME280_temperature;BME280_humidity;BME280_pressure;Samples;Min_cycle;Max_cycle;Signal;HPM_P1;HPM_P2
2021/12/21 00:00:49;;;;;;;57.95;7.25;;;1.50;91.10;;;;;;5012673;28;36492;-61
2021/12/21 00:03:18;;;;;;;53.88;7.47;;;1.50;91.20;;;;;;5013061;28;37367;-61
2021/12/21 00:05:46;;;;;;;11.70;5.47;;;1.50;91.10;;;;;;5012976;28;37740;-61
2021/12/21 00:08:15;;;;;;;11.75;5.00;;;1.50;91.10;;;;;;5012954;28;37429;-61
2021/12/21 00:10:46;;;;;;;11.32;4.75;;;1.50;90.90;;;;;;5012011;28;36595;-60
2021/12/21 00:13:25;;;;;;;12.82;5.57;;;1.50;90.90;;;;;;5013011;28;39253;-61
2021/12/21 00:15:59;;;;;;;9.23;4.28;;;1.40;90.80;;;;;;5012320;28;37864;-60
2021/12/21 00:18:35;;;;;;;11.73;5.10;;;1.40;90.60;;;;;;5017854;28;37855;-60
2021/12/21 00:21:10;;;;;;;13.23;5.25;;;1.40;90.60;;;;;;5017957;28;36502;-61
2021/12/21 00:23:40;;;;;;;13.20;5.57;;;1.40;90.50;;;;;;5016634;28;37467;-60
2021/12/21 00:26:10;;;;;;;14.60;6.38;;;1.30;90.80;;;;;;5018295;28;37518;-61
2021/12/21 00:28:45;;;;;;;14.93;6.18;;;1.30;90.50;;;;;;5018512;28;36999;-61
2021/12/21 00:31:12;;;;;;;15.32;7.15;;;1.20;90.60;;;;;;5017631;28;35479;-60
2021/12/21 00:33:45;;;;;;;14.10;5.68;;;1.10;90.70;;;;;;5018271;28;38300;-60
2021/12/21 00:36:13;;;;;;;13.18;6.00;;;1.20;90.80;;;;;;5017752;28;36370;-60
2021/12/21 00:38:41;;;;;;;11.80;5.82;;;1.20;90.70;;;;;;5016271;28;39112;-61
2021/12/21 00:41:09;;;;;;;12.77;5.53;;;1.20;90.70;;;;;;5017097;28;36953;-61
2021/12/21 00:43:36;;;;;;;12.43;5.38;;;1.10;90.60;;;;;;5016886;28;37850;-60
2021/12/21 00:46:04;;;;;;;11.23;5.40;;;1.10;90.50;;;;;;5016570;28;37688;-61
2021/12/21 00:48:33;;;;;;;11.45;5.72;;;1.10;90.50;;;;;;5017286;28;36200;-61
2021/12/21 00:51:04;;;;;;;12.48;6.15;;;1.10;90.60;;;;;;5018346;28;37877;-61
2021/12/21 00:53:34;;;;;;;11.65;5.85;;;1.10;90.60;;;;;;5017710;28;38083;-61
2021/12/21 00:56:03;;;;;;;10.25;4.90;;;1.10;90.50;;;;;;5016494;28;37721;-60
2021/12/21 00:58:31;;;;;;;9.90;5.13;;;1.10;90.80;;;;;;5017555;28;36986;-61
2021/12/21 01:01:03;;;;;;;10.88;5.00;;;1.10;90.60;;;;;;5016919;28;36885;-60
2021/12/21 01:03:30;;;;;;;11.55;5.22;;;1.10;90.60;;;;;;5016969;28;37481;-61
2021/12/21 01:06:05;;;;;;;12.82;6.35;;;1.10;90.50;;;;;;5017050;28;37774;-61
2021/12/21 01:08:44;;;;;;;13.90;6.50;;;1.10;90.40;;;;;;5016459;28;37321;-61
2021/12/21 01:11:16;;;;;;;15.05;5.40;;;1.00;90.40;;;;;;5018079;28;35303;-61
2021/12/21 01:13:54;;;;;;;12.15;6.07;;;1.00;90.40;;;;;;5017160;28;36251;-61
2021/12/21 01:16:30;;;;;;;11.07;5.68;;;1.10;90.50;;;;;;5017481;28;37820;-60
2021/12/21 01:19:07;;;;;;;15.73;6.68;;;1.10;90.40;;;;;;5016432;28;37094;-61
2021/12/21 01:21:40;;;;;;;18.20;6.72;;;1.00;90.40;;;;;;5015848;28;36970;-61
2021/12/21 01:27:22;;;;;;;13.70;6.25;;;1.00;90.30;;;;;;4983120;28;38994;-61
2021/12/21 01:29:59;;;;;;;11.23;4.65;;;1.10;90.40;;;;;;5017798;28;38416;-61
2021/12/21 01:32:39;;;;;;;16.00;4.00;;;1.60;90.70;;;;;;5015529;28;38287;-61
2021/12/21 01:35:13;;;;;;;7.57;3.70;;;1.00;90.60;;;;;;5016420;28;37275;-61
2021/12/21 01:37:51;;;;;;;6.38;3.35;;;1.00;90.60;;;;;;5016745;28;38494;-61
2021/12/21 01:40:30;;;;;;;6.00;3.33;;;1.00;90.70;;;;;;5015741;28;37475;-61
2021/12/21 01:43:15;;;;;;;6.78;3.13;;;0.90;90.70;;;;;;5017269;28;36552;-61
2021/12/21 01:51:13;;;;;;;5.20;3.00;;;1.00;90.60;;;;;;5017844;28;38547;-61
2021/12/21 01:53:43;;;;;;;9.00;4.28;;;0.90;90.50;;;;;;5015578;28;36270;-61
2021/12/21 01:56:12;;;;;;;8.27;4.65;;;0.80;90.40;;;;;;5017426;28;38031;-61
2021/12/21 01:58:40;;;;;;;11.13;4.70;;;0.80;90.40;;;;;;5015798;28;36948;-61
2021/12/21 02:01:10;;;;;;;8.60;4.60;;;0.80;90.50;;;;;;5016446;28;38003;-61
2021/12/21 02:03:37;;;;;;;9.15;4.28;;;0.80;90.60;;;;;;5016381;28;36006;-61
2021/12/21 02:06:05;;;;;;;9.20;4.18;;;0.80;90.60;;;;;;5016203;28;38860;-60
2021/12/21 02:08:33;;;;;;;9.20;4.78;;;0.80;90.40;;;;;;5015569;28;40249;-61
2021/12/21 02:11:04;;;;;;;10.95;5.18;;;0.80;90.50;;;;;;5016208;28;37402;-61
2021/12/21 02:13:36;;;;;;;6.35;3.40;;;0.80;90.60;;;;;;5016092;28;35309;-61
2021/12/21 02:16:05;;;;;;;7.50;3.53;;;0.90;90.90;;;;;;5016662;28;38382;-61
2021/12/21 02:18:39;;;;;;;7.70;3.47;;;0.80;90.80;;;;;;5015247;28;37773;-61
2021/12/21 02:21:19;;;;;;;8.63;4.18;;;0.80;90.90;;;;;;5016295;28;37549;-61
2021/12/21 02:23:49;;;;;;;9.18;4.65;;;0.90;91.00;;;;;;5015328;28;35339;-61
2021/12/21 02:26:38;;;;;;;13.80;6.05;;;0.90;90.90;;;;;;5015028;28;36543;-60
2021/12/21 02:29:17;;;;;;;10.10;5.00;;;0.80;90.90;;;;;;5016095;28;37948;-61
2021/12/21 02:31:47;;;;;;;9.35;4.82;;;0.80;90.90;;;;;;5015983;28;37200;-61
2021/12/21 02:34:17;;;;;;;8.82;4.68;;;0.80;90.80;;;;;;5016619;28;37442;-61
2021/12/21 02:36:48;;;;;;;9.20;5.15;;;0.80;90.70;;;;;;5015981;28;37822;-61
2021/12/21 02:39:17;;;;;;;9.57;5.07;;;0.80;90.80;;;;;;5014891;28;37420;-61
2021/12/21 02:41:45;;;;;;;9.15;4.97;;;0.80;90.70;;;;;;5015810;28;37240;-61
2021/12/21 02:44:13;;;;;;;8.27;4.70;;;0.80;90.60;;;;;;5014131;28;36226;-61
2021/12/21 02:46:41;;;;;;;10.25;5.22;;;0.70;90.60;;;;;;5015618;28;38358;-61
2021/12/21 02:49:10;;;;;;;10.30;6.22;;;0.80;90.70;;;;;;5015193;28;37555;-61
2021/12/21 02:51:39;;;;;;;11.00;6.32;;;0.80;90.80;;;;;;5015721;28;37424;-61
2021/12/21 02:54:09;;;;;;;9.85;5.55;;;0.80;90.80;;;;;;5014134;28;39051;-61
2021/12/21 02:56:37;;;;;;;9.32;4.95;;;0.80;90.60;;;;;;5015088;28;36342;-61
2021/12/21 02:59:05;;;;;;;8.48;5.25;;;0.70;90.70;;;;;;5013780;28;36489;-60
2021/12/21 03:01:33;;;;;;;10.60;5.65;;;0.70;90.40;;;;;;5015284;28;37009;-60
2021/12/21 03:04:00;;;;;;;15.10;8.65;;;0.60;90.60;;;;;;5015081;28;36269;-60
2021/12/21 03:09:36;;;;;;;12.68;7.15;;;0.60;90.80;;;;;;5013884;28;38673;-60
2021/12/21 03:12:12;;;;;;;13.05;6.95;;;0.60;90.90;;;;;;5014681;28;36905;-60
2021/12/21 03:14:39;;;;;;;8.70;5.65;;;0.60;91.00;;;;;;5012963;28;36329;-61
2021/12/21 03:17:07;;;;;;;10.88;6.63;;;0.60;91.20;;;;;;5014679;28;37646;-60
2021/12/21 03:19:35;;;;;;;12.55;6.97;;;0.50;91.10;;;;;;5014705;28;36384;-61
2021/12/21 03:22:03;;;;;;;10.65;5.75;;;0.50;91.00;;;;;;5014713;28;37277;-61
2021/12/21 03:24:31;;;;;;;18.55;6.97;;;0.50;90.80;;;;;;5014809;28;37800;-60
2021/12/21 03:26:59;;;;;;;13.95;7.10;;;0.50;90.80;;;;;;5013601;28;38435;-60
2021/12/21 03:29:26;;;;;;;10.60;6.43;;;0.50;90.70;;;;;;5015925;28;36347;-61
2021/12/21 03:31:54;;;;;;;13.90;7.25;;;0.40;90.60;;;;;;5015234;28;37492;-60
2021/12/21 03:34:21;;;;;;;12.15;7.20;;;0.40;90.80;;;;;;5014049;28;36476;-60
2021/12/21 03:36:49;;;;;;;11.70;7.03;;;0.40;90.80;;;;;;5015124;28;36450;-61
2021/12/21 03:39:19;;;;;;;11.35;6.85;;;0.50;90.80;;;;;;5014502;28;37212;-60
2021/12/21 03:41:50;;;;;;;12.52;6.13;;;0.50;90.70;;;;;;5015630;28;38057;-60
2021/12/21 03:44:19;;;;;;;11.73;6.75;;;0.50;90.60;;;;;;5014130;28;37291;-61
2021/12/21 03:46:48;;;;;;;15.15;7.03;;;0.50;90.70;;;;;;5015063;28;36282;-61
2021/12/21 03:49:51;;;;;;;11.25;6.18;;;0.50;90.90;;;;;;5014508;28;37769;-60
2021/12/21 03:52:19;;;;;;;11.20;7.15;;;0.40;90.60;;;;;;5013900;28;38580;-61
2021/12/21 03:54:48;;;;;;;18.48;8.20;;;0.50;90.60;;;;;;5013449;28;37556;-61
2021/12/21 03:57:17;;;;;;;14.60;6.50;;;0.50;90.60;;;;;;5013434;28;37521;-61
2021/12/21 03:59:45;;;;;;;13.50;6.88;;;0.50;90.50;;;;;;5014661;28;36578;-60
2021/12/21 04:02:14;;;;;;;13.80;7.18;;;0.40;90.40;;;;;;5015067;28;36285;-60
2021/12/21 04:04:42;;;;;;;13.25;8.07;;;0.50;90.50;;;;;;5013783;28;36304;-60
2021/12/21 04:07:10;;;;;;;13.75;7.88;;;1.10;90.60;;;;;;5014599;28;38347;-61
2021/12/21 04:09:37;;;;;;;14.82;7.60;;;0.50;90.50;;;;;;5014427;28;37747;-61
2021/12/21 04:12:05;;;;;;;17.08;7.15;;;0.40;90.60;;;;;;5015776;28;37976;-60
2021/12/21 04:14:35;;;;;;;14.43;8.15;;;0.40;90.50;;;;;;5015246;28;36498;-61
2021/12/21 04:17:03;;;;;;;16.58;7.65;;;0.40;90.50;;;;;;5014388;28;39407;-61
2021/12/21 04:19:30;;;;;;;13.77;7.28;;;0.40;90.50;;;;;;5015599;28;37190;-61
2021/12/21 04:21:58;;;;;;;12.63;7.20;;;0.40;90.50;;;;;;5018343;28;36079;-61
2021/12/21 04:24:25;;;;;;;13.57;6.78;;;0.40;90.50;;;;;;5017293;28;36640;-61
2021/12/21 04:26:52;;;;;;;14.07;6.90;;;0.40;90.50;;;;;;5018682;28;39017;-61
2021/12/21 04:29:20;;;;;;;13.13;6.93;;;0.40;90.60;;;;;;5017835;28;39244;-61
2021/12/21 04:31:48;;;;;;;13.65;7.20;;;0.40;90.60;;;;;;5018180;28;38096;-61
2021/12/21 04:34:16;;;;;;;14.45;7.97;;;0.50;90.60;;;;;;5018400;28;37839;-60
2021/12/21 04:36:44;;;;;;;14.38;6.80;;;0.50;90.50;;;;;;5017503;28;38388;-61
2021/12/21 04:39:23;;;;;;;14.23;6.60;;;0.40;90.40;;;;;;5017161;28;39497;-61
2021/12/21 04:41:50;;;;;;;13.40;6.72;;;0.50;90.50;;;;;;5018008;28;37350;-61
2021/12/21 04:44:17;;;;;;;12.80;6.10;;;0.40;90.40;;;;;;5016690;28;36420;-61
2021/12/21 04:46:45;;;;;;;13.15;6.55;;;0.50;90.50;;;;;;5017866;28;37007;-60
2021/12/21 04:49:14;;;;;;;13.65;6.95;;;0.50;90.60;;;;;;5017431;28;38723;-60
2021/12/21 04:51:41;;;;;;;14.60;6.32;;;0.40;90.40;;;;;;5018187;28;38153;-60
2021/12/21 04:54:08;;;;;;;11.63;6.10;;;0.40;90.50;;;;;;5017026;28;36713;-60
2021/12/21 04:56:35;;;;;;;11.85;6.57;;;0.40;90.40;;;;;;5018332;28;39594;-61
2021/12/21 04:59:03;;;;;;;15.73;6.78;;;0.40;90.40;;;;;;5018557;28;37856;-61
2021/12/21 05:01:30;;;;;;;12.93;6.47;;;0.40;90.40;;;;;;5017079;28;35909;-61
2021/12/21 05:03:57;;;;;;;13.18;6.55;;;0.40;90.40;;;;;;5016950;28;37823;-61
2021/12/21 05:06:26;;;;;;;12.32;5.80;;;0.40;90.30;;;;;;5017329;28;37292;-61
2021/12/21 05:09:05;;;;;;;13.93;7.43;;;0.40;90.60;;;;;;5015804;28;37705;-61
2021/12/21 05:11:35;;;;;;;13.52;6.75;;;0.40;90.60;;;;;;5017530;28;37438;-60
2021/12/21 05:14:06;;;;;;;10.90;5.93;;;0.40;90.50;;;;;;5016499;28;37126;-61
2021/12/21 05:16:34;;;;;;;12.65;5.60;;;0.40;90.40;;;;;;5017413;28;37448;-61
2021/12/21 05:19:01;;;;;;;10.90;6.22;;;0.40;90.30;;;;;;5017647;28;37721;-61
2021/12/21 05:21:30;;;;;;;10.93;5.57;;;0.40;90.30;;;;;;5016758;28;37488;-61
2021/12/21 05:23:57;;;;;;;11.93;6.20;;;0.40;90.30;;;;;;5016383;28;36595;-61
2021/12/21 05:26:25;;;;;;;12.25;5.80;;;0.30;90.20;;;;;;5017211;28;36356;-61
2021/12/21 05:28:52;;;;;;;11.32;6.28;;;0.30;90.30;;;;;;5016731;28;37801;-61
2021/12/21 05:31:19;;;;;;;13.95;5.70;;;0.30;90.30;;;;;;5017288;28;37902;-61
2021/12/21 05:33:50;;;;;;;13.63;5.97;;;0.30;90.30;;;;;;5017083;28;35175;-60
2021/12/21 05:36:19;;;;;;;10.43;5.60;;;0.30;90.40;;;;;;5016882;28;36989;-61
2021/12/21 05:38:51;;;;;;;10.65;5.85;;;0.30;90.30;;;;;;5016072;28;37317;-61
2021/12/21 05:41:25;;;;;;;10.70;5.30;;;0.30;90.30;;;;;;5017500;28;37313;-61
2021/12/21 05:43:53;;;;;;;11.88;5.15;;;0.20;90.30;;;;;;5016652;28;35310;-61
2021/12/21 05:46:21;;;;;;;10.32;5.20;;;0.20;90.40;;;;;;5016728;28;36946;-61
2021/12/21 05:48:51;;;;;;;12.93;5.35;;;0.20;90.40;;;;;;5016706;28;38671;-61
2021/12/21 05:51:21;;;;;;;12.60;4.95;;;0.30;90.30;;;;;;5015910;28;37498;-61
2021/12/21 05:53:50;;;;;;;11.60;4.53;;;0.30;90.30;;;;;;5016035;28;36602;-61
2021/12/21 05:56:17;;;;;;;14.00;5.45;;;0.20;90.20;;;;;;5016797;28;37071;-61
2021/12/21 05:58:45;;;;;;;11.70;5.00;;;0.20;90.30;;;;;;5016209;28;38361;-61
2021/12/21 06:01:12;;;;;;;9.98;5.05;;;0.20;90.20;;;;;;5015448;28;37423;-61
2021/12/21 06:03:40;;;;;;;11.88;5.60;;;0.20;90.20;;;;;;5015802;28;40705;-61
2021/12/21 06:06:12;;;;;;;11.63;4.82;;;0.20;90.40;;;;;;5016815;28;38341;-61
2021/12/21 06:08:40;;;;;;;12.02;5.25;;;0.30;90.40;;;;;;5015789;28;37899;-61
2021/12/21 06:11:09;;;;;;;12.05;5.07;;;0.30;90.30;;;;;;5014995;28;37718;-61
2021/12/21 06:22:44;;;;;;;9.02;4.70;;;0.30;90.30;;;;;;5016344;28;38547;-61
2021/12/21 06:27:49;;;;;;;9.82;4.97;;;0.20;90.30;;;;;;4977538;28;39166;-60
2021/12/21 06:30:17;;;;;;;10.82;4.90;;;0.20;90.30;;;;;;5006699;28;38383;-60
2021/12/21 06:32:45;;;;;;;12.50;4.85;;;0.20;90.30;;;;;;5016987;28;37395;-60
2021/12/21 06:35:14;;;;;;;9.07;5.30;;;0.20;90.30;;;;;;5012518;28;37149;-60
2021/12/21 06:37:42;;;;;;;11.73;4.95;;;0.20;90.30;;;;;;5013517;28;37539;-60
2021/12/21 06:40:11;;;;;;;8.77;4.32;;;0.10;90.20;;;;;;5013876;28;38417;-60
2021/12/21 06:42:40;;;;;;;11.77;5.28;;;0.10;90.30;;;;;;5015761;28;37538;-60
2021/12/21 06:45:23;;;;;;;9.43;4.60;;;0.10;90.30;;;;;;5015546;28;37341;-60
2021/12/21 06:53:23;;;;;;;9.68;4.72;;;0.10;90.20;;;;;;5013931;28;37100;-60
2021/12/21 06:55:51;;;;;;;11.63;5.00;;;0.20;90.20;;;;;;5016180;28;36083;-60
2021/12/21 06:58:20;;;;;;;10.30;5.05;;;0.20;90.30;;;;;;5017855;28;38075;-60
2021/12/21 07:04:37;;;;;;;12.13;5.22;;;0.10;90.20;;;;;;5018334;28;37607;-60
2021/12/21 07:07:06;;;;;;;9.75;4.88;;;0.10;90.20;;;;;;4955911;28;35576;-60
2021/12/21 07:09:39;;;;;;;10.10;4.35;;;0.10;90.30;;;;;;4957998;28;39101;-60
2021/12/21 07:12:24;;;;;;;10.80;4.25;;;0.10;90.30;;;;;;4958802;28;37835;-60
2021/12/21 07:20:22;;;;;;;11.30;5.30;;;0.10;90.30;;;;;;4957743;28;38398;-60
2021/12/21 07:22:50;;;;;;;10.38;4.70;;;0.10;90.40;;;;;;4956121;28;37698;-60
2021/12/21 07:25:17;;;;;;;10.43;4.75;;;0.10;90.40;;;;;;4987785;28;37015;-60
2021/12/21 07:27:44;;;;;;;12.82;5.97;;;0.10;90.40;;;;;;5014760;28;36493;-60
2021/12/21 07:30:12;;;;;;;16.17;5.03;;;0.20;90.40;;;;;;5014894;28;38491;-60
2021/12/21 07:32:40;;;;;;;16.67;5.70;;;0.20;90.40;;;;;;5015084;28;37247;-60
2021/12/21 07:35:08;;;;;;;10.55;5.38;;;0.10;90.40;;;;;;5014311;28;37310;-60
2021/12/21 07:37:37;;;;;;;10.95;5.85;;;0.10;90.40;;;;;;5015445;28;36689;-60
2021/12/21 07:40:05;;;;;;;9.50;5.15;;;0.10;90.40;;;;;;5014511;28;37353;-60
2021/12/21 07:42:32;;;;;;;16.83;6.47;;;0.10;90.50;;;;;;5015182;28;38500;-61
2021/12/21 07:45:00;;;;;;;13.00;6.05;;;0.20;90.60;;;;;;5014268;28;36244;-60
2021/12/21 07:47:28;;;;;;;15.25;6.03;;;0.20;90.60;;;;;;5015287;28;37132;-60
2021/12/21 07:49:56;;;;;;;13.68;6.05;;;0.20;90.80;;;;;;5014830;28;38157;-60
2021/12/21 07:52:24;;;;;;;12.10;5.25;;;0.20;90.60;;;;;;5014822;28;38618;-60
2021/12/21 07:54:52;;;;;;;13.43;5.90;;;0.90;90.70;;;;;;5014081;28;37135;-61
2021/12/21 07:57:20;;;;;;;12.32;6.47;;;0.20;90.60;;;;;;5017420;28;36494;-61
2021/12/21 07:59:48;;;;;;;12.50;5.88;;;0.30;90.60;;;;;;5019022;28;37308;-60
2021/12/21 08:02:15;;;;;;;12.77;6.45;;;0.40;90.60;;;;;;5018718;28;39571;-60
2021/12/21 08:04:44;;;;;;;11.85;6.80;;;0.30;90.60;;;;;;5019496;28;37310;-60
2021/12/21 08:07:16;;;;;;;12.38;6.68;;;0.40;90.70;;;;;;5018706;28;37878;-61
2021/12/21 08:09:48;;;;;;;14.15;6.43;;;0.40;90.70;;;;;;5017453;28;37725;-60
2021/12/21 08:12:19;;;;;;;13.65;6.38;;;0.40;90.70;;;;;;5018383;28;37779;-60
2021/12/21 08:14:49;;;;;;;18.48;6.60;;;0.50;90.80;;;;;;5018027;28;39136;-60
2021/12/21 08:17:18;;;;;;;15.75;6.63;;;0.50;90.80;;;;;;5018578;28;36224;-60
2021/12/21 08:19:48;;;;;;;12.90;5.93;;;0.70;91.00;;;;;;5018315;28;39831;-60
2021/12/21 08:22:15;;;;;;;13.55;6.35;;;0.90;91.00;;;;;;5018738;28;38901;-61
2021/12/21 08:24:44;;;;;;;16.77;6.57;;;1.00;90.70;;;;;;5019199;28;38855;-61
2021/12/21 08:27:12;;;;;;;12.57;5.93;;;1.20;90.60;;;;;;5018798;28;36595;-61
2021/12/21 08:29:40;;;;;;;15.23;6.45;;;1.50;90.30;;;;;;5018571;28;37371;-61
2021/12/21 08:32:08;;;;;;;14.30;5.50;;;1.80;89.60;;;;;;5017822;28;37923;-61
2021/12/21 08:34:36;;;;;;;13.45;5.90;;;2.10;88.90;;;;;;5019214;28;35989;-61
2021/12/21 08:37:04;;;;;;;16.58;6.97;;;2.40;87.80;;;;;;5018528;28;35993;-61
2021/12/21 08:39:38;;;;;;;12.48;6.13;;;2.60;86.80;;;;;;5017905;28;38250;-61
2021/12/21 08:42:07;;;;;;;14.95;5.85;;;2.70;86.50;;;;;;5018530;28;37576;-61
2021/12/21 08:44:35;;;;;;;12.65;6.00;;;2.60;86.40;;;;;;5018540;28;37988;-61
2021/12/21 08:47:04;;;;;;;16.40;6.43;;;2.60;86.50;;;;;;5018372;28;37269;-61
2021/12/21 08:49:31;;;;;;;11.40;5.65;;;2.60;86.90;;;;;;5018707;28;38499;-61
2021/12/21 08:51:59;;;;;;;14.27;6.22;;;2.60;87.20;;;;;;5017902;28;38504;-61
2021/12/21 08:54:26;;;;;;;13.23;5.63;;;2.70;87.40;;;;;;5016445;28;36064;-61
2021/12/21 08:56:54;;;;;;;13.13;6.20;;;2.80;86.60;;;;;;5018203;28;36610;-61
2021/12/21 08:59:21;;;;;;;12.50;5.53;;;3.00;86.20;;;;;;5018809;28;37407;-61
2021/12/21 09:01:51;;;;;;;14.73;6.18;;;3.10;85.90;;;;;;5017760;28;37893;-61
2021/12/21 09:04:22;;;;;;;12.15;5.90;;;3.10;85.60;;;;;;5017803;28;38116;-61
2021/12/21 09:06:49;;;;;;;19.02;6.82;;;3.10;86.00;;;;;;5018203;28;35324;-61
2021/12/21 09:09:16;;;;;;;15.65;5.88;;;3.10;86.60;;;;;;5019012;28;37712;-61
2021/12/21 09:11:46;;;;;;;12.20;6.13;;;3.10;87.10;;;;;;5017807;28;37717;-61
2021/12/21 09:14:13;;;;;;;15.70;6.05;;;3.30;87.00;;;;;;5017475;28;37448;-61
2021/12/21 09:16:40;;;;;;;12.95;6.57;;;3.60;86.30;;;;;;5018643;28;36840;-61
2021/12/21 09:19:08;;;;;;;18.23;6.43;;;4.00;84.40;;;;;;5016759;28;40097;-61
2021/12/21 09:21:37;;;;;;;13.80;6.65;;;4.30;83.20;;;;;;5016547;28;38117;-60
2021/12/21 09:24:04;;;;;;;11.35;5.35;;;4.50;82.40;;;;;;5017596;28;38106;-60
2021/12/21 09:26:32;;;;;;;14.93;5.88;;;4.50;82.40;;;;;;5016579;28;36346;-60
2021/12/21 09:28:59;;;;;;;13.18;6.22;;;4.50;82.40;;;;;;5018360;28;35911;-60
2021/12/21 09:31:26;;;;;;;11.15;5.78;;;4.40;82.70;;;;;;5016773;28;37888;-60
2021/12/21 09:33:54;;;;;;;10.93;5.35;;;4.40;82.90;;;;;;5017486;28;37734;-61
2021/12/21 09:36:22;;;;;;;12.32;5.80;;;4.50;83.10;;;;;;5017868;28;36606;-60
2021/12/21 09:38:51;;;;;;;10.45;5.28;;;4.70;82.80;;;;;;5018408;28;38698;-60
2021/12/21 09:41:19;;;;;;;10.70;5.45;;;4.80;82.30;;;;;;5015581;28;38286;-60
2021/12/21 09:43:46;;;;;;;10.88;5.63;;;4.90;82.20;;;;;;5017714;28;37202;-60
2021/12/21 09:46:16;;;;;;;12.68;5.90;;;5.10;82.00;;;;;;5016650;28;35371;-60
2021/12/21 09:48:45;;;;;;;11.23;5.65;;;5.20;80.80;;;;;;5016681;28;37444;-60
2021/12/21 09:51:12;;;;;;;14.18;6.10;;;5.40;80.50;;;;;;5016421;28;37404;-60
2021/12/21 09:53:40;;;;;;;16.88;5.95;;;5.50;80.30;;;;;;5016423;28;37475;-60
2021/12/21 09:56:08;;;;;;;13.57;6.35;;;5.90;80.00;;;;;;5017018;28;36049;-60
2021/12/21 09:58:36;;;;;;;13.05;5.72;;;6.10;79.30;;;;;;5017418;28;38083;-60
2021/12/21 10:01:04;;;;;;;13.63;5.40;;;6.20;78.80;;;;;;5016341;28;40100;-60
2021/12/21 10:03:32;;;;;;;14.05;6.25;;;6.30;78.80;;;;;;5016999;28;38028;-60
2021/12/21 10:06:06;;;;;;;13.43;5.95;;;6.30;78.40;;;;;;5016633;28;36642;-60
2021/12/21 10:08:35;;;;;;;12.18;4.72;;;6.40;77.60;;;;;;5016101;28;36233;-61
2021/12/21 10:11:03;;;;;;;9.48;5.22;;;6.40;77.80;;;;;;5015911;28;38651;-60
2021/12/21 10:13:35;;;;;;;10.95;5.70;;;6.40;77.80;;;;;;5016993;28;36242;-60
2021/12/21 10:16:04;;;;;;;9.68;5.25;;;6.30;77.80;;;;;;5016942;28;35465;-60
2021/12/21 10:18:33;;;;;;;13.13;5.30;;;6.20;78.00;;;;;;5015239;28;38145;-60
2021/12/21 10:21:03;;;;;;;10.77;5.82;;;6.10;78.70;;;;;;5017097;28;38693;-60
2021/12/21 10:23:32;;;;;;;12.88;5.53;;;5.90;78.70;;;;;;5014540;28;37268;-60
2021/12/21 10:26:02;;;;;;;11.35;5.28;;;5.80;79.10;;;;;;5016582;28;35315;-61
2021/12/21 10:28:34;;;;;;;11.15;5.10;;;5.70;79.20;;;;;;5016655;28;37214;-60
2021/12/21 10:31:05;;;;;;;14.95;5.72;;;5.70;79.20;;;;;;5016267;28;37906;-60
2021/12/21 10:33:33;;;;;;;14.77;5.70;;;5.60;79.20;;;;;;5015437;28;38088;-60
2021/12/21 10:36:02;;;;;;;12.80;5.28;;;5.50;79.40;;;;;;5016457;28;35237;-60
2021/12/21 10:38:33;;;;;;;10.95;4.95;;;5.40;79.40;;;;;;5016131;28;37627;-60
2021/12/21 10:41:11;;;;;;;11.98;5.15;;;5.40;79.70;;;;;;5016025;28;38899;-60
2021/12/21 10:43:40;;;;;;;10.85;4.47;;;5.40;79.50;;;;;;5015971;28;37491;-60
2021/12/21 10:46:08;;;;;;;15.57;5.07;;;5.30;79.80;;;;;;5016116;28;37551;-61
2021/12/21 10:48:37;;;;;;;12.50;5.22;;;5.30;79.60;;;;;;5015644;28;38029;-61
2021/12/21 10:51:08;;;;;;;10.90;4.45;;;5.20;79.50;;;;;;5013704;28;37528;-60
2021/12/21 10:53:37;;;;;;;12.55;5.13;;;5.20;80.00;;;;;;5015575;28;37799;-61
2021/12/21 10:56:07;;;;;;;12.60;6.15;;;5.10;80.70;;;;;;5015852;28;36599;-61
2021/12/21 10:58:40;;;;;;;11.57;6.63;;;5.00;81.10;;;;;;5015540;28;36144;-60
2021/12/21 11:01:10;;;;;;;14.82;6.72;;;4.90;81.60;;;;;;5015022;28;39729;-60
2021/12/21 11:03:44;;;;;;;15.40;6.57;;;4.80;81.90;;;;;;5014470;28;38857;-60
2021/12/21 11:06:13;;;;;;;13.43;6.10;;;4.80;81.90;;;;;;5013764;28;35185;-60
2021/12/21 11:08:42;;;;;;;13.63;5.18;;;4.80;82.00;;;;;;5013900;28;37262;-60
2021/12/21 11:11:22;;;;;;;12.30;6.20;;;4.80;81.80;;;;;;5015230;28;38217;-60
2021/12/21 11:14:01;;;;;;;12.63;5.03;;;4.80;82.40;;;;;;5015782;28;37061;-60
2021/12/21 11:16:37;;;;;;;12.40;5.55;;;4.80;82.00;;;;;;5015356;28;36715;-60
2021/12/21 11:19:05;;;;;;;11.82;5.78;;;4.90;82.10;;;;;;5014593;28;36162;-60
2021/12/21 11:21:33;;;;;;;12.88;5.63;;;4.90;81.70;;;;;;5013727;28;37804;-61
2021/12/21 11:24:03;;;;;;;11.95;5.85;;;4.90;82.00;;;;;;5013752;28;40728;-60
2021/12/21 11:26:32;;;;;;;14.30;6.00;;;4.90;82.20;;;;;;5015674;28;38425;-61
2021/12/21 11:29:05;;;;;;;11.60;5.28;;;4.90;82.30;;;;;;5015161;28;37285;-61
2021/12/21 11:31:37;;;;;;;15.13;5.82;;;4.90;82.50;;;;;;5017040;28;37194;-60
2021/12/21 11:34:07;;;;;;;10.50;5.10;;;4.90;82.30;;;;;;5018472;28;37364;-61
2021/12/21 11:39:21;;;;;;;11.40;4.90;;;5.00;82.40;;;;;;5018890;28;42100;-61
2021/12/21 11:41:49;;;;;;;11.55;5.40;;;5.20;82.10;;;;;;5016942;28;36346;-60
2021/12/21 11:44:26;;;;;;;10.02;4.30;;;5.40;81.40;;;;;;5018580;28;36252;-60
2021/12/21 11:46:58;;;;;;;11.68;4.70;;;5.60;80.00;;;;;;5018770;28;36955;-60
2021/12/21 11:49:32;;;;;;;10.80;4.88;;;5.70;79.00;;;;;;5018218;28;37084;-61
2021/12/21 11:52:13;;;;;;;11.20;4.05;;;5.90;78.60;;;;;;5018514;28;36423;-60
2021/12/21 11:54:49;;;;;;;13.90;6.05;;;6.00;77.80;;;;;;5017649;28;37280;-61
2021/12/21 11:57:19;;;;;;;9.70;3.90;;;6.00;77.50;;;;;;5017920;28;37237;-61
2021/12/21 11:59:50;;;;;;;9.23;4.00;;;6.00;77.60;;;;;;5016690;28;36134;-61
2021/12/21 12:02:28;;;;;;;9.65;4.22;;;5.90;77.70;;;;;;5016281;28;37746;-61
2021/12/21 12:04:56;;;;;;;9.77;4.15;;;5.90;77.90;;;;;;5018119;28;36190;-61
2021/12/21 12:07:24;;;;;;;10.75;4.78;;;5.80;78.50;;;;;;5018138;28;36326;-61
2021/12/21 12:10:08;;;;;;;13.35;5.47;;;5.80;78.50;;;;;;5017071;28;39598;-61
2021/12/21 12:12:36;;;;;;;10.00;4.05;;;5.70;77.30;;;;;;5018222;28;38269;-61
2021/12/21 12:15:08;;;;;;;12.77;4.38;;;5.60;78.10;;;;;;5018400;28;37595;-61
2021/12/21 12:17:46;;;;;;;12.52;4.35;;;5.60;77.90;;;;;;5017773;28;36985;-61
2021/12/21 12:20:14;;;;;;;10.80;4.07;;;5.60;78.30;;;;;;5020349;28;38010;-61
2021/12/21 12:22:44;;;;;;;10.93;3.78;;;5.60;78.60;;;;;;5019063;28;38930;-61
2021/12/21 12:25:19;;;;;;;9.23;3.55;;;5.60;78.50;;;;;;5019191;28;37464;-61
2021/12/21 12:27:49;;;;;;;8.25;3.60;;;5.60;78.20;;;;;;5018023;28;36521;-61
2021/12/21 12:30:20;;;;;;;13.88;5.25;;;5.50;77.60;;;;;;5016776;28;39104;-61
2021/12/21 12:32:55;;;;;;;9.40;3.50;;;5.50;77.90;;;;;;5018277;28;40262;-61
2021/12/21 12:35:25;;;;;;;8.63;3.63;;;5.40;78.50;;;;;;5018115;28;36589;-61
2021/12/21 12:37:55;;;;;;;11.10;4.10;;;5.50;78.20;;;;;;5017997;28;37039;-61
2021/12/21 12:40:28;;;;;;;12.68;4.18;;;5.40;77.90;;;;;;5018796;28;41499;-61
2021/12/21 12:42:58;;;;;;;11.40;4.20;;;5.40;78.00;;;;;;5017980;28;39046;-61
2021/12/21 12:45:35;;;;;;;10.40;4.03;;;5.30;78.60;;;;;;5017336;28;37432;-61
2021/12/21 12:48:04;;;;;;;8.70;3.28;;;5.30;78.10;;;;;;5018198;28;36432;-61
2021/12/21 12:50:40;;;;;;;13.13;3.83;;;5.30;78.00;;;;;;5017280;28;40139;-61
2021/12/21 12:53:08;;;;;;;14.80;4.00;;;5.20;77.90;;;;;;5019007;28;36395;-61
2021/12/21 12:55:41;;;;;;;8.45;3.60;;;5.30;77.60;;;;;;5018731;28;37867;-61
2021/12/21 12:58:14;;;;;;;11.35;3.53;;;5.20;77.60;;;;;;5017315;28;36992;-61
2021/12/21 13:00:45;;;;;;;9.65;3.63;;;5.20;77.60;;;;;;5017337;28;37471;-61
2021/12/21 13:03:14;;;;;;;10.63;4.10;;;5.10;77.90;;;;;;5018345;28;38633;-61
2021/12/21 13:05:52;;;;;;;11.65;4.35;;;5.10;78.10;;;;;;5018473;28;37681;-61
2021/12/21 13:08:23;;;;;;;13.63;5.00;;;5.10;78.50;;;;;;5018645;28;37032;-60
2021/12/21 13:10:52;;;;;;;11.75;4.55;;;5.20;78.90;;;;;;5017284;28;39050;-60
2021/12/21 13:13:21;;;;;;;10.93;4.10;;;5.20;78.80;;;;;;5016442;28;38009;-60
2021/12/21 13:15:51;;;;;;;10.60;4.20;;;5.20;78.60;;;;;;5016912;28;37304;-60
2021/12/21 13:18:20;;;;;;;11.90;4.90;;;5.20;78.80;;;;;;5017512;28;35265;-61
2021/12/21 13:20:50;;;;;;;9.25;4.18;;;5.10;79.00;;;;;;5017927;28;36176;-61
2021/12/21 13:23:19;;;;;;;9.75;3.75;;;5.10;79.00;;;;;;5015658;28;37837;-60
2021/12/21 13:25:59;;;;;;;9.27;3.88;;;5.10;78.90;;;;;;5017966;28;38122;-60
2021/12/21 13:28:27;;;;;;;11.05;4.78;;;5.20;78.90;;;;;;5017896;28;36876;-61
2021/12/21 13:30:57;;;;;;;11.85;3.10;;;5.10;78.70;;;;;;5017450;28;38129;-61
2021/12/21 13:33:26;;;;;;;9.00;3.88;;;5.10;78.60;;;;;;5015802;28;37725;-61
2021/12/21 13:35:57;;;;;;;10.77;3.80;;;5.10;78.80;;;;;;5017574;28;37322;-61
2021/12/21 13:38:27;;;;;;;12.50;4.38;;;5.10;78.90;;;;;;5017295;28;35113;-61
2021/12/21 13:41:06;;;;;;;8.75;3.75;;;5.10;78.90;;;;;;5017871;28;38019;-60
2021/12/21 13:43:34;;;;;;;9.85;3.67;;;5.10;78.80;;;;;;5016571;28;38911;-61